RJOI/IWA METAR and TAF weather

Enter ICAO airport designator
Station Type Date Time Source
RJOI METAR 2019/06/19 06:55 UTC NOAA

RJOI 190655Z 17006KT 9999 FEW030 BKN250 24/17 A2967 RMK SLP046 T02440172


Station Type Date Time Source
RJOI Decoded METAR 2019/06/19 06:55 UTC NOAA

MCAS IWAKUNI,JAPAN, JA, Japan (RJOI) 34-09N 132-14E 5M
Jun 19, 2019 - 02:55 AM EDT / 2019.06.19 0655 UTC
Wind: from the S (170 degrees) at 7 MPH (6 KT):0
Visibility: greater than 7 mile(s):0
Sky conditions: mostly cloudy
Temperature: 75.9 F (24.4 C)
Dew Point: 63.0 F (17.2 C)
Relative Humidity: 64%
Pressure (altimeter): 29.67 in. Hg (1004 hPa)
ob: RJOI 190655Z 17006KT 9999 FEW030 BKN250 24/17 A2967 RMK SLP046 T02440172
cycle: 7

Station Type Date Time Source
RJOI TAF 2019/06/19 05:03 UTC NOAA

TAF TAF RJOI 1905/2005 19008KT 9999 FEW030 BKN230 QNH2964INS
FM191200 31006KT 9999 FEW030 SCT230 QNH2967INS
FM200000 10006KT 9999 FEW030 BKN250 QNH2972INS
FM200300 17008KT 9999 VCSH FEW030 BKN250 QNH2968INS T19/1921Z T27/2005Z

Example: see airport list